This is the latest recevied weather packets stored in our database for station/object K4TH. If no packets are shown the sender has not sent any weather packets the latest 1 day(s).
| Time | Temp. | Humidity | Pressure | Rain* | Wind** | Luminosity | Snow |
|---|---|---|---|---|---|---|---|
| 1836274855 | 20.56° C | 98% | 1018.5 hPa | 0 mm | 0 m/s | 0 W/m² | - |
| 1836274553 | 20.56° C | 98% | 1018.7 hPa | 0 mm | 0 m/s | 0 W/m² | - |
| 1836274407 | 20.56° C | 98% | 1018.6 hPa | 0 mm | 0 m/s | 0 W/m² | - |
| 1836274252 | 20.56° C | 98% | 1018.7 hPa | 0 mm | 0 m/s | 0 W/m² | - |
| 1836273951 | 20.56° C | 98% | 1018.5 hPa | 0 mm | 0 m/s | 0 W/m² | - |
| 1778050908 | 22.22° C | 81% | 1011 hPa | 0 mm | 0.89 m/s, 212° | 0 W/m² | - |
| 1778050607 | 22.22° C | 81% | 1011.4 hPa | 0 mm | 0.89 m/s, 161° | 0 W/m² | - |
| 1778050303 | 22.22° C | 80% | 1011.1 hPa | 0 mm | 1.34 m/s, 160° | 0 W/m² | - |
| 1778050000 | 22.22° C | 80% | 1011.4 hPa | 0 mm | 1.34 m/s, 192° | 0 W/m² | - |
| 1778049695 | 22.22° C | 80% | 1011.3 hPa | 0 mm | 0.45 m/s, 49° | 0 W/m² | - |
| 1778049394 | 22.22° C | 79% | 1011.6 hPa | 0 mm | 1.34 m/s, 165° | 0 W/m² | - |
| 1778049090 | 22.22° C | 79% | 1011.7 hPa | 0 mm | 1.34 m/s, 117° | 0 W/m² | - |
| 1778048789 | 22.22° C | 79% | 1011.7 hPa | 0 mm | 0.45 m/s, 68° | 0 W/m² | - |
| 1778048485 | 22.22° C | 79% | 1011.9 hPa | 0 mm | 0.89 m/s, 112° | 0 W/m² | - |
| 1778048181 | 22.22° C | 79% | 1011.8 hPa | 0 mm | 0 m/s | 0 W/m² | - |
| 1778047879 | 22.22° C | 79% | 1011.8 hPa | 0 mm | 0.89 m/s, 67° | 0 W/m² | - |
| 1778047578 | 22.22° C | 78% | 1011.9 hPa | 0 mm | 0.45 m/s, 33° | 0 W/m² | - |
| 1778047274 | 22.22° C | 78% | 1011.9 hPa | 0 mm | 0.45 m/s, 31° | 0 W/m² | - |
| 1778046971 | 22.22° C | 78% | 1011.9 hPa | 0 mm | 0.45 m/s, 60° | 0 W/m² | - |
| 1778046668 | 22.78° C | 78% | 1011.9 hPa | 0 mm | 0.45 m/s, 41° | 0 W/m² | - |
| 1778046365 | 22.78° C | 78% | 1012 hPa | 0 mm | 0.45 m/s, 68° | 0 W/m² | - |
| 1778046061 | 22.78° C | 78% | 1011.8 hPa | 0 mm | 0.45 m/s, 75° | 0 W/m² | - |
| 1778045759 | 22.22° C | 78% | 1011.8 hPa | 0 mm | 0.45 m/s, 47° | 0 W/m² | - |
| 1778045457 | 22.22° C | 78% | 1012 hPa | 0 mm | 0.45 m/s, 78° | 0 W/m² | - |
| 1778045155 | 22.22° C | 78% | 1011.8 hPa | 0 mm | 0.45 m/s, 340° | 0 W/m² | - |
* Rain latest hour (hover to see other rain measurements)
** Current wind speed in m/s (hover to see current wind gust speed)